sensor_id;sensor_type;location;lat;lon;timestamp;P1;durP1;ratioP1;P2;durP2;ratioP2
37383;SDS011;23258;49.718;11.082;2022-12-29T00:01:54;1.50;;;1.40;;
37383;SDS011;23258;49.718;11.082;2022-12-29T00:04:24;1.30;;;1.20;;
37383;SDS011;23258;49.718;11.082;2022-12-29T00:06:54;1.65;;;1.55;;
37383;SDS011;23258;49.718;11.082;2022-12-29T00:09:23;1.50;;;1.40;;
37383;SDS011;23258;49.718;11.082;2022-12-29T00:11:55;1.55;;;1.45;;
37383;SDS011;23258;49.718;11.082;2022-12-29T00:14:26;0.93;;;0.93;;
37383;SDS011;23258;49.718;11.082;2022-12-29T00:17:08;1.52;;;1.42;;
37383;SDS011;23258;49.718;11.082;2022-12-29T00:19:37;1.75;;;1.52;;
37383;SDS011;23258;49.718;11.082;2022-12-29T00:22:19;1.58;;;1.48;;
37383;SDS011;23258;49.718;11.082;2022-12-29T00:25:01;1.65;;;1.55;;
37383;SDS011;23258;49.718;11.082;2022-12-29T00:27:46;2.63;;;1.45;;
37383;SDS011;23258;49.718;11.082;2022-12-29T00:30:33;1.23;;;1.20;;
37383;SDS011;23258;49.718;11.082;2022-12-29T00:33:17;1.55;;;1.45;;
37383;SDS011;23258;49.718;11.082;2022-12-29T00:36:00;1.25;;;1.23;;
37383;SDS011;23258;49.718;11.082;2022-12-29T00:38:31;1.58;;;1.48;;
37383;SDS011;23258;49.718;11.082;2022-12-29T00:41:14;1.38;;;1.33;;
37383;SDS011;23258;49.718;11.082;2022-12-29T00:43:58;1.25;;;1.23;;
37383;SDS011;23258;49.718;11.082;2022-12-29T00:46:40;1.25;;;1.17;;
37383;SDS011;23258;49.718;11.082;2022-12-29T00:49:10;1.70;;;1.60;;
37383;SDS011;23258;49.718;11.082;2022-12-29T00:51:53;1.00;;;1.00;;
37383;SDS011;23258;49.718;11.082;2022-12-29T00:54:23;1.27;;;1.25;;
37383;SDS011;23258;49.718;11.082;2022-12-29T00:56:53;1.60;;;1.50;;
37383;SDS011;23258;49.718;11.082;2022-12-29T00:59:25;3.63;;;1.80;;
37383;SDS011;23258;49.718;11.082;2022-12-29T01:01:56;1.00;;;1.00;;
37383;SDS011;23258;49.718;11.082;2022-12-29T01:04:27;2.58;;;1.13;;
37383;SDS011;23258;49.718;11.082;2022-12-29T01:06:57;1.40;;;1.30;;
37383;SDS011;23258;49.718;11.082;2022-12-29T01:09:26;1.05;;;0.95;;
37383;SDS011;23258;49.718;11.082;2022-12-29T01:12:09;1.92;;;1.52;;
37383;SDS011;23258;49.718;11.082;2022-12-29T01:14:42;2.30;;;1.33;;
37383;SDS011;23258;49.718;11.082;2022-12-29T01:17:12;2.17;;;1.65;;
37383;SDS011;23258;49.718;11.082;2022-12-29T01:19:42;1.55;;;1.45;;
37383;SDS011;23258;49.718;11.082;2022-12-29T01:22:11;2.28;;;1.65;;
37383;SDS011;23258;49.718;11.082;2022-12-29T01:24:43;1.13;;;1.10;;
37383;SDS011;23258;49.718;11.082;2022-12-29T01:27:12;1.52;;;1.45;;
37383;SDS011;23258;49.718;11.082;2022-12-29T01:29:46;1.58;;;1.48;;
37383;SDS011;23258;49.718;11.082;2022-12-29T01:32:15;2.08;;;1.13;;
37383;SDS011;23258;49.718;11.082;2022-12-29T01:34:45;2.90;;;1.15;;
37383;SDS011;23258;49.718;11.082;2022-12-29T01:37:15;1.27;;;1.17;;
37383;SDS011;23258;49.718;11.082;2022-12-29T01:39:44;3.70;;;1.35;;
37383;SDS011;23258;49.718;11.082;2022-12-29T01:42:14;1.00;;;1.00;;
37383;SDS011;23258;49.718;11.082;2022-12-29T01:44:51;1.40;;;1.30;;
37383;SDS011;23258;49.718;11.082;2022-12-29T01:47:26;1.15;;;1.15;;
37383;SDS011;23258;49.718;11.082;2022-12-29T01:49:57;1.00;;;1.00;;
37383;SDS011;23258;49.718;11.082;2022-12-29T01:52:28;1.70;;;1.60;;
37383;SDS011;23258;49.718;11.082;2022-12-29T01:55:00;1.35;;;1.25;;
37383;SDS011;23258;49.718;11.082;2022-12-29T01:57:31;1.38;;;1.38;;
37383;SDS011;23258;49.718;11.082;2022-12-29T02:00:06;1.60;;;1.50;;
37383;SDS011;23258;49.718;11.082;2022-12-29T02:02:39;1.23;;;1.20;;
37383;SDS011;23258;49.718;11.082;2022-12-29T02:05:11;1.05;;;1.05;;
37383;SDS011;23258;49.718;11.082;2022-12-29T02:07:44;1.60;;;1.33;;
37383;SDS011;23258;49.718;11.082;2022-12-29T02:10:14;0.85;;;0.85;;
37383;SDS011;23258;49.718;11.082;2022-12-29T02:12:43;3.10;;;1.25;;
37383;SDS011;23258;49.718;11.082;2022-12-29T02:15:16;1.35;;;1.30;;
37383;SDS011;23258;49.718;11.082;2022-12-29T02:18:03;1.10;;;1.10;;
37383;SDS011;23258;49.718;11.082;2022-12-29T02:20:45;1.45;;;1.30;;
37383;SDS011;23258;49.718;11.082;2022-12-29T02:26:19;1.45;;;1.38;;
37383;SDS011;23258;49.718;11.082;2022-12-29T02:29:00;1.40;;;1.33;;
37383;SDS011;23258;49.718;11.082;2022-12-29T02:31:39;2.63;;;1.50;;
37383;SDS011;23258;49.718;11.082;2022-12-29T02:34:15;1.10;;;1.10;;
37383;SDS011;23258;49.718;11.082;2022-12-29T02:36:50;2.83;;;1.55;;
37383;SDS011;23258;49.718;11.082;2022-12-29T02:39:27;1.40;;;1.30;;
37383;SDS011;23258;49.718;11.082;2022-12-29T02:42:03;1.17;;;1.15;;
37383;SDS011;23258;49.718;11.082;2022-12-29T02:44:39;3.20;;;1.35;;
37383;SDS011;23258;49.718;11.082;2022-12-29T02:47:19;1.23;;;1.23;;
37383;SDS011;23258;49.718;11.082;2022-12-29T02:49:51;1.05;;;0.98;;
37383;SDS011;23258;49.718;11.082;2022-12-29T02:52:25;1.85;;;1.20;;
37383;SDS011;23258;49.718;11.082;2022-12-29T02:54:57;1.67;;;1.58;;
37383;SDS011;23258;49.718;11.082;2022-12-29T02:57:29;1.58;;;1.48;;
37383;SDS011;23258;49.718;11.082;2022-12-29T03:00:03;2.42;;;1.95;;
37383;SDS011;23258;49.718;11.082;2022-12-29T03:02:43;2.42;;;1.15;;
37383;SDS011;23258;49.718;11.082;2022-12-29T03:05:25;1.33;;;1.23;;
37383;SDS011;23258;49.718;11.082;2022-12-29T03:07:57;1.35;;;1.27;;
37383;SDS011;23258;49.718;11.082;2022-12-29T03:10:33;1.63;;;1.52;;
37383;SDS011;23258;49.718;11.082;2022-12-29T03:13:06;1.35;;;1.30;;
37383;SDS011;23258;49.718;11.082;2022-12-29T03:15:53;1.15;;;1.13;;
37383;SDS011;23258;49.718;11.082;2022-12-29T03:18:37;1.42;;;1.33;;
37383;SDS011;23258;49.718;11.082;2022-12-29T03:21:10;2.13;;;1.40;;
37383;SDS011;23258;49.718;11.082;2022-12-29T03:23:42;1.60;;;1.50;;
37383;SDS011;23258;49.718;11.082;2022-12-29T03:26:16;1.65;;;1.55;;
37383;SDS011;23258;49.718;11.082;2022-12-29T03:28:47;1.73;;;1.52;;
37383;SDS011;23258;49.718;11.082;2022-12-29T03:31:21;1.52;;;1.42;;
37383;SDS011;23258;49.718;11.082;2022-12-29T03:33:55;1.42;;;1.33;;
37383;SDS011;23258;49.718;11.082;2022-12-29T03:36:26;1.05;;;1.05;;
37383;SDS011;23258;49.718;11.082;2022-12-29T03:38:57;2.00;;;1.50;;
37383;SDS011;23258;49.718;11.082;2022-12-29T03:41:30;1.85;;;1.38;;
37383;SDS011;23258;49.718;11.082;2022-12-29T03:44:02;0.90;;;0.90;;
37383;SDS011;23258;49.718;11.082;2022-12-29T03:46:33;1.20;;;1.20;;
37383;SDS011;23258;49.718;11.082;2022-12-29T03:49:05;1.40;;;1.30;;
37383;SDS011;23258;49.718;11.082;2022-12-29T03:51:35;1.58;;;1.27;;
37383;SDS011;23258;49.718;11.082;2022-12-29T03:54:05;1.00;;;1.00;;
37383;SDS011;23258;49.718;11.082;2022-12-29T03:56:34;1.58;;;1.48;;
37383;SDS011;23258;49.718;11.082;2022-12-29T03:59:04;2.30;;;1.30;;
37383;SDS011;23258;49.718;11.082;2022-12-29T04:01:38;1.42;;;1.33;;
37383;SDS011;23258;49.718;11.082;2022-12-29T04:04:10;1.73;;;1.63;;
37383;SDS011;23258;49.718;11.082;2022-12-29T04:06:40;1.95;;;1.85;;
37383;SDS011;23258;49.718;11.082;2022-12-29T04:09:09;1.70;;;1.60;;
37383;SDS011;23258;49.718;11.082;2022-12-29T04:11:43;2.35;;;2.20;;
37383;SDS011;23258;49.718;11.082;2022-12-29T04:14:13;2.03;;;1.90;;
37383;SDS011;23258;49.718;11.082;2022-12-29T04:16:43;1.83;;;1.45;;
37383;SDS011;23258;49.718;11.082;2022-12-29T04:19:16;1.15;;;1.08;;
37383;SDS011;23258;49.718;11.082;2022-12-29T04:21:46;1.58;;;1.48;;
37383;SDS011;23258;49.718;11.082;2022-12-29T04:24:16;1.65;;;1.55;;
37383;SDS011;23258;49.718;11.082;2022-12-29T04:26:48;1.77;;;1.40;;
37383;SDS011;23258;49.718;11.082;2022-12-29T04:29:50;2.15;;;1.80;;
37383;SDS011;23258;49.718;11.082;2022-12-29T04:32:39;1.67;;;1.58;;
37383;SDS011;23258;49.718;11.082;2022-12-29T04:35:11;3.88;;;1.80;;
37383;SDS011;23258;49.718;11.082;2022-12-29T04:37:41;2.17;;;1.98;;
37383;SDS011;23258;49.718;11.082;2022-12-29T04:40:11;1.33;;;1.23;;
37383;SDS011;23258;49.718;11.082;2022-12-29T04:42:40;1.95;;;1.65;;
37383;SDS011;23258;49.718;11.082;2022-12-29T04:45:10;1.50;;;1.33;;
37383;SDS011;23258;49.718;11.082;2022-12-29T04:47:52;1.45;;;1.30;;
37383;SDS011;23258;49.718;11.082;2022-12-29T04:50:44;1.40;;;1.30;;
37383;SDS011;23258;49.718;11.082;2022-12-29T04:53:18;1.13;;;1.13;;
37383;SDS011;23258;49.718;11.082;2022-12-29T04:55:48;2.05;;;1.55;;
37383;SDS011;23258;49.718;11.082;2022-12-29T04:58:19;1.30;;;1.20;;
37383;SDS011;23258;49.718;11.082;2022-12-29T05:00:50;1.73;;;1.30;;
37383;SDS011;23258;49.718;11.082;2022-12-29T05:03:23;1.53;;;1.40;;
37383;SDS011;23258;49.718;11.082;2022-12-29T05:05:56;1.10;;;1.10;;
37383;SDS011;23258;49.718;11.082;2022-12-29T05:08:26;1.90;;;1.33;;
37383;SDS011;23258;49.718;11.082;2022-12-29T05:10:58;1.33;;;1.23;;
37383;SDS011;23258;49.718;11.082;2022-12-29T05:13:28;1.40;;;1.30;;
37383;SDS011;23258;49.718;11.082;2022-12-29T05:15:59;3.30;;;1.20;;
37383;SDS011;23258;49.718;11.082;2022-12-29T05:18:28;1.17;;;1.17;;
37383;SDS011;23258;49.718;11.082;2022-12-29T05:21:01;1.17;;;1.10;;
37383;SDS011;23258;49.718;11.082;2022-12-29T05:23:31;1.38;;;1.30;;
37383;SDS011;23258;49.718;11.082;2022-12-29T05:26:04;1.25;;;1.25;;
37383;SDS011;23258;49.718;11.082;2022-12-29T05:28:53;1.48;;;1.38;;
37383;SDS011;23258;49.718;11.082;2022-12-29T05:31:22;1.70;;;1.60;;
37383;SDS011;23258;49.718;11.082;2022-12-29T05:33:52;1.33;;;1.33;;
37383;SDS011;23258;49.718;11.082;2022-12-29T05:36:24;1.73;;;1.50;;
37383;SDS011;23258;49.718;11.082;2022-12-29T05:39:02;1.45;;;1.35;;
37383;SDS011;23258;49.718;11.082;2022-12-29T05:41:32;2.05;;;1.70;;
37383;SDS011;23258;49.718;11.082;2022-12-29T05:44:05;4.80;;;1.35;;
37383;SDS011;23258;49.718;11.082;2022-12-29T05:47:05;1.38;;;1.27;;
37383;SDS011;23258;49.718;11.082;2022-12-29T05:50:00;1.42;;;1.23;;
37383;SDS011;23258;49.718;11.082;2022-12-29T05:52:55;1.83;;;1.50;;
37383;SDS011;23258;49.718;11.082;2022-12-29T05:55:24;1.50;;;1.40;;
37383;SDS011;23258;49.718;11.082;2022-12-29T05:57:54;1.25;;;1.23;;
37383;SDS011;23258;49.718;11.082;2022-12-29T06:00:24;1.60;;;1.50;;
37383;SDS011;23258;49.718;11.082;2022-12-29T06:02:53;1.75;;;1.10;;
37383;SDS011;23258;49.718;11.082;2022-12-29T06:05:23;1.27;;;1.15;;
37383;SDS011;23258;49.718;11.082;2022-12-29T06:07:55;1.15;;;1.08;;
37383;SDS011;23258;49.718;11.082;2022-12-29T06:10:26;2.35;;;1.42;;
37383;SDS011;23258;49.718;11.082;2022-12-29T06:13:02;1.10;;;1.05;;
37383;SDS011;23258;49.718;11.082;2022-12-29T06:15:35;1.73;;;1.63;;
37383;SDS011;23258;49.718;11.082;2022-12-29T06:18:07;1.73;;;1.42;;
37383;SDS011;23258;49.718;11.082;2022-12-29T06:20:45;1.10;;;1.10;;
37383;SDS011;23258;49.718;11.082;2022-12-29T06:23:19;2.45;;;1.52;;
37383;SDS011;23258;49.718;11.082;2022-12-29T06:25:48;2.45;;;1.10;;
37383;SDS011;23258;49.718;11.082;2022-12-29T06:28:18;1.20;;;1.10;;
37383;SDS011;23258;49.718;11.082;2022-12-29T06:30:48;1.40;;;1.30;;
37383;SDS011;23258;49.718;11.082;2022-12-29T06:33:17;1.35;;;1.33;;
37383;SDS011;23258;49.718;11.082;2022-12-29T06:35:47;1.52;;;1.33;;
37383;SDS011;23258;49.718;11.082;2022-12-29T06:38:19;3.05;;;1.45;;
37383;SDS011;23258;49.718;11.082;2022-12-29T06:40:49;1.45;;;1.35;;
37383;SDS011;23258;49.718;11.082;2022-12-29T06:43:18;1.58;;;1.48;;
37383;SDS011;23258;49.718;11.082;2022-12-29T06:46:07;1.75;;;1.23;;
37383;SDS011;23258;49.718;11.082;2022-12-29T06:48:37;1.10;;;1.00;;
37383;SDS011;23258;49.718;11.082;2022-12-29T06:51:08;1.15;;;1.15;;
37383;SDS011;23258;49.718;11.082;2022-12-29T06:53:40;1.77;;;1.67;;
37383;SDS011;23258;49.718;11.082;2022-12-29T06:56:10;1.90;;;1.80;;
37383;SDS011;23258;49.718;11.082;2022-12-29T06:58:39;1.20;;;1.20;;
37383;SDS011;23258;49.718;11.082;2022-12-29T07:01:09;2.72;;;1.75;;
37383;SDS011;23258;49.718;11.082;2022-12-29T07:03:40;2.00;;;1.85;;
37383;SDS011;23258;49.718;11.082;2022-12-29T07:06:10;1.13;;;1.02;;
37383;SDS011;23258;49.718;11.082;2022-12-29T07:08:42;1.17;;;1.15;;
37383;SDS011;23258;49.718;11.082;2022-12-29T07:11:12;1.40;;;1.30;;
37383;SDS011;23258;49.718;11.082;2022-12-29T07:13:42;1.83;;;1.73;;
37383;SDS011;23258;49.718;11.082;2022-12-29T07:16:12;3.08;;;2.25;;
37383;SDS011;23258;49.718;11.082;2022-12-29T07:18:42;2.45;;;2.35;;
37383;SDS011;23258;49.718;11.082;2022-12-29T07:21:12;1.98;;;1.88;;
37383;SDS011;23258;49.718;11.082;2022-12-29T07:23:44;1.52;;;1.42;;
37383;SDS011;23258;49.718;11.082;2022-12-29T07:26:14;1.60;;;1.50;;
37383;SDS011;23258;49.718;11.082;2022-12-29T07:28:44;1.15;;;1.15;;
37383;SDS011;23258;49.718;11.082;2022-12-29T07:31:14;2.38;;;1.52;;
37383;SDS011;23258;49.718;11.082;2022-12-29T07:33:45;1.60;;;1.50;;
37383;SDS011;23258;49.718;11.082;2022-12-29T07:36:15;5.40;;;1.90;;
37383;SDS011;23258;49.718;11.082;2022-12-29T07:38:47;1.88;;;1.77;;
37383;SDS011;23258;49.718;11.082;2022-12-29T07:41:17;1.50;;;1.40;;
37383;SDS011;23258;49.718;11.082;2022-12-29T07:43:47;1.33;;;1.23;;
37383;SDS011;23258;49.718;11.082;2022-12-29T07:46:35;1.00;;;1.00;;
37383;SDS011;23258;49.718;11.082;2022-12-29T07:49:23;1.40;;;1.30;;
37383;SDS011;23258;49.718;11.082;2022-12-29T07:51:52;2.17;;;1.98;;
37383;SDS011;23258;49.718;11.082;2022-12-29T07:54:24;1.50;;;1.50;;
37383;SDS011;23258;49.718;11.082;2022-12-29T07:56:54;1.50;;;1.40;;
37383;SDS011;23258;49.718;11.082;2022-12-29T07:59:24;2.03;;;1.88;;
37383;SDS011;23258;49.718;11.082;2022-12-29T08:01:53;1.20;;;1.20;;
37383;SDS011;23258;49.718;11.082;2022-12-29T08:04:23;1.40;;;1.30;;
37383;SDS011;23258;49.718;11.082;2022-12-29T08:06:52;1.50;;;1.42;;
37383;SDS011;23258;49.718;11.082;2022-12-29T08:09:25;3.05;;;1.50;;
37383;SDS011;23258;49.718;11.082;2022-12-29T08:11:54;1.45;;;1.35;;
37383;SDS011;23258;49.718;11.082;2022-12-29T08:14:24;3.53;;;1.50;;
37383;SDS011;23258;49.718;11.082;2022-12-29T08:16:53;1.58;;;1.48;;
37383;SDS011;23258;49.718;11.082;2022-12-29T08:19:23;1.45;;;1.35;;
37383;SDS011;23258;49.718;11.082;2022-12-29T08:21:52;1.88;;;1.63;;
37383;SDS011;23258;49.718;11.082;2022-12-29T08:24:24;1.38;;;1.27;;
37383;SDS011;23258;49.718;11.082;2022-12-29T08:26:54;1.83;;;1.73;;
37383;SDS011;23258;49.718;11.082;2022-12-29T08:29:28;1.23;;;1.13;;
37383;SDS011;23258;49.718;11.082;2022-12-29T08:31:58;3.13;;;2.05;;
37383;SDS011;23258;49.718;11.082;2022-12-29T08:34:27;1.65;;;1.55;;
37383;SDS011;23258;49.718;11.082;2022-12-29T08:36:57;1.60;;;1.40;;
37383;SDS011;23258;49.718;11.082;2022-12-29T08:39:29;3.20;;;1.33;;
37383;SDS011;23258;49.718;11.082;2022-12-29T08:41:59;1.30;;;1.20;;
37383;SDS011;23258;49.718;11.082;2022-12-29T08:44:28;1.50;;;1.40;;
37383;SDS011;23258;49.718;11.082;2022-12-29T08:46:58;1.58;;;1.48;;
37383;SDS011;23258;49.718;11.082;2022-12-29T08:49:27;1.52;;;1.30;;
37383;SDS011;23258;49.718;11.082;2022-12-29T08:51:56;1.42;;;1.33;;
37383;SDS011;23258;49.718;11.082;2022-12-29T08:54:29;1.30;;;1.25;;
37383;SDS011;23258;49.718;11.082;2022-12-29T08:56:59;1.42;;;1.33;;
37383;SDS011;23258;49.718;11.082;2022-12-29T08:59:35;1.70;;;1.60;;
37383;SDS011;23258;49.718;11.082;2022-12-29T09:02:05;1.88;;;1.77;;
37383;SDS011;23258;49.718;11.082;2022-12-29T09:04:35;2.03;;;1.50;;
37383;SDS011;23258;49.718;11.082;2022-12-29T09:07:04;1.77;;;1.33;;
37383;SDS011;23258;49.718;11.082;2022-12-29T09:09:37;3.85;;;1.35;;
37383;SDS011;23258;49.718;11.082;2022-12-29T09:12:06;1.17;;;1.17;;
37383;SDS011;23258;49.718;11.082;2022-12-29T09:14:36;1.98;;;1.50;;
37383;SDS011;23258;49.718;11.082;2022-12-29T09:17:05;1.38;;;1.15;;
37383;SDS011;23258;49.718;11.082;2022-12-29T09:19:47;1.58;;;1.42;;
37383;SDS011;23258;49.718;11.082;2022-12-29T09:22:17;1.40;;;1.30;;
37383;SDS011;23258;49.718;11.082;2022-12-29T09:24:49;1.02;;;1.00;;
37383;SDS011;23258;49.718;11.082;2022-12-29T09:27:19;1.02;;;1.02;;
37383;SDS011;23258;49.718;11.082;2022-12-29T09:29:49;0.88;;;0.88;;
37383;SDS011;23258;49.718;11.082;2022-12-29T09:32:19;1.38;;;1.30;;
37383;SDS011;23258;49.718;11.082;2022-12-29T09:34:50;1.40;;;1.30;;
37383;SDS011;23258;49.718;11.082;2022-12-29T09:37:19;1.00;;;1.00;;
37383;SDS011;23258;49.718;11.082;2022-12-29T09:39:52;1.23;;;1.20;;
37383;SDS011;23258;49.718;11.082;2022-12-29T09:42:23;1.83;;;1.45;;
37383;SDS011;23258;49.718;11.082;2022-12-29T09:45:01;2.75;;;1.45;;
37383;SDS011;23258;49.718;11.082;2022-12-29T09:47:32;1.38;;;1.27;;
37383;SDS011;23258;49.718;11.082;2022-12-29T09:50:03;1.67;;;1.10;;
37383;SDS011;23258;49.718;11.082;2022-12-29T09:52:35;1.50;;;1.40;;
37383;SDS011;23258;49.718;11.082;2022-12-29T09:55:12;0.95;;;0.95;;
37383;SDS011;23258;49.718;11.082;2022-12-29T09:57:45;1.63;;;1.52;;
37383;SDS011;23258;49.718;11.082;2022-12-29T10:00:16;2.00;;;1.05;;
37383;SDS011;23258;49.718;11.082;2022-12-29T10:02:46;2.13;;;1.60;;
37383;SDS011;23258;49.718;11.082;2022-12-29T10:05:26;1.33;;;1.33;;
37383;SDS011;23258;49.718;11.082;2022-12-29T10:08:01;1.33;;;1.23;;
37383;SDS011;23258;49.718;11.082;2022-12-29T10:10:38;1.83;;;1.25;;
37383;SDS011;23258;49.718;11.082;2022-12-29T10:13:15;1.17;;;1.17;;
37383;SDS011;23258;49.718;11.082;2022-12-29T10:15:48;1.45;;;1.35;;
37383;SDS011;23258;49.718;11.082;2022-12-29T10:18:27;1.20;;;1.10;;
37383;SDS011;23258;49.718;11.082;2022-12-29T10:21:03;2.45;;;1.40;;
37383;SDS011;23258;49.718;11.082;2022-12-29T10:23:35;1.25;;;1.15;;
37383;SDS011;23258;49.718;11.082;2022-12-29T10:26:11;1.00;;;1.00;;
37383;SDS011;23258;49.718;11.082;2022-12-29T10:28:43;1.13;;;1.13;;
37383;SDS011;23258;49.718;11.082;2022-12-29T10:31:17;1.15;;;1.05;;
37383;SDS011;23258;49.718;11.082;2022-12-29T10:33:49;1.58;;;1.45;;
37383;SDS011;23258;49.718;11.082;2022-12-29T10:36:21;1.50;;;1.40;;
37383;SDS011;23258;49.718;11.082;2022-12-29T10:38:54;1.88;;;1.30;;
37383;SDS011;23258;49.718;11.082;2022-12-29T10:41:32;2.85;;;1.25;;
37383;SDS011;23258;49.718;11.082;2022-12-29T10:44:03;3.28;;;1.80;;
37383;SDS011;23258;49.718;11.082;2022-12-29T10:46:34;1.48;;;1.17;;
37383;SDS011;23258;49.718;11.082;2022-12-29T10:49:05;1.30;;;1.23;;
37383;SDS011;23258;49.718;11.082;2022-12-29T10:51:36;3.45;;;1.20;;
37383;SDS011;23258;49.718;11.082;2022-12-29T10:54:10;1.50;;;1.40;;
37383;SDS011;23258;49.718;11.082;2022-12-29T10:56:43;1.58;;;1.48;;
37383;SDS011;23258;49.718;11.082;2022-12-29T10:59:15;0.80;;;0.80;;
37383;SDS011;23258;49.718;11.082;2022-12-29T11:01:48;1.77;;;1.58;;
37383;SDS011;23258;49.718;11.082;2022-12-29T11:04:26;1.60;;;1.40;;
37383;SDS011;23258;49.718;11.082;2022-12-29T11:06:58;1.02;;;1.02;;
37383;SDS011;23258;49.718;11.082;2022-12-29T11:09:29;1.60;;;1.50;;
37383;SDS011;23258;49.718;11.082;2022-12-29T11:12:21;1.33;;;0.98;;
37383;SDS011;23258;49.718;11.082;2022-12-29T11:15:00;1.40;;;1.27;;
37383;SDS011;23258;49.718;11.082;2022-12-29T11:17:31;1.83;;;1.73;;
37383;SDS011;23258;49.718;11.082;2022-12-29T11:22:56;2.13;;;1.80;;
37383;SDS011;23258;49.718;11.082;2022-12-29T11:25:26;1.90;;;1.70;;
37383;SDS011;23258;49.718;11.082;2022-12-29T11:27:59;1.27;;;1.27;;
37383;SDS011;23258;49.718;11.082;2022-12-29T11:30:31;3.55;;;1.80;;
37383;SDS011;23258;49.718;11.082;2022-12-29T11:33:02;1.58;;;1.45;;
37383;SDS011;23258;49.718;11.082;2022-12-29T11:35:33;1.50;;;1.40;;
37383;SDS011;23258;49.718;11.082;2022-12-29T11:38:06;1.60;;;1.50;;
37383;SDS011;23258;49.718;11.082;2022-12-29T11:40:45;1.00;;;1.00;;
37383;SDS011;23258;49.718;11.082;2022-12-29T11:43:18;3.35;;;1.58;;
37383;SDS011;23258;49.718;11.082;2022-12-29T11:45:49;2.35;;;1.20;;
37383;SDS011;23258;49.718;11.082;2022-12-29T11:48:23;1.73;;;1.55;;
37383;SDS011;23258;49.718;11.082;2022-12-29T11:50:54;1.25;;;1.20;;
37383;SDS011;23258;49.718;11.082;2022-12-29T11:53:26;3.78;;;1.48;;
37383;SDS011;23258;49.718;11.082;2022-12-29T11:55:56;1.55;;;1.45;;
37383;SDS011;23258;49.718;11.082;2022-12-29T11:58:33;1.63;;;1.52;;
37383;SDS011;23258;49.718;11.082;2022-12-29T12:01:04;1.70;;;1.58;;
37383;SDS011;23258;49.718;11.082;2022-12-29T12:03:36;1.27;;;1.17;;
37383;SDS011;23258;49.718;11.082;2022-12-29T12:06:07;1.33;;;1.33;;
37383;SDS011;23258;49.718;11.082;2022-12-29T12:08:41;1.67;;;1.58;;
37383;SDS011;23258;49.718;11.082;2022-12-29T12:11:13;2.75;;;1.92;;
37383;SDS011;23258;49.718;11.082;2022-12-29T12:13:59;2.15;;;1.60;;
37383;SDS011;23258;49.718;11.082;2022-12-29T12:16:50;2.10;;;1.27;;
37383;SDS011;23258;49.718;11.082;2022-12-29T12:19:24;1.80;;;1.70;;
37383;SDS011;23258;49.718;11.082;2022-12-29T12:22:03;1.65;;;1.42;;
37383;SDS011;23258;49.718;11.082;2022-12-29T12:24:37;1.45;;;1.45;;
37383;SDS011;23258;49.718;11.082;2022-12-29T12:27:10;1.67;;;1.58;;
37383;SDS011;23258;49.718;11.082;2022-12-29T12:29:46;1.77;;;1.67;;
37383;SDS011;23258;49.718;11.082;2022-12-29T12:32:17;1.42;;;1.33;;
37383;SDS011;23258;49.718;11.082;2022-12-29T12:34:48;1.90;;;1.73;;
37383;SDS011;23258;49.718;11.082;2022-12-29T12:37:32;1.45;;;1.35;;
37383;SDS011;23258;49.718;11.082;2022-12-29T12:42:49;1.77;;;1.67;;
37383;SDS011;23258;49.718;11.082;2022-12-29T12:45:30;1.77;;;1.67;;
37383;SDS011;23258;49.718;11.082;2022-12-29T12:48:06;1.50;;;1.23;;
37383;SDS011;23258;49.718;11.082;2022-12-29T12:50:45;3.80;;;1.55;;
37383;SDS011;23258;49.718;11.082;2022-12-29T12:53:34;2.22;;;2.05;;
37383;SDS011;23258;49.718;11.082;2022-12-29T12:56:15;2.05;;;1.83;;
37383;SDS011;23258;49.718;11.082;2022-12-29T12:58:52;3.75;;;1.50;;
37383;SDS011;23258;49.718;11.082;2022-12-29T13:01:28;2.13;;;1.65;;
37383;SDS011;23258;49.718;11.082;2022-12-29T13:04:18;2.65;;;1.50;;
37383;SDS011;23258;49.718;11.082;2022-12-29T13:06:51;7.32;;;2.13;;
37383;SDS011;23258;49.718;11.082;2022-12-29T13:09:25;3.50;;;1.65;;
37383;SDS011;23258;49.718;11.082;2022-12-29T13:12:03;1.80;;;1.55;;
37383;SDS011;23258;49.718;11.082;2022-12-29T13:14:37;3.95;;;1.77;;
37383;SDS011;23258;49.718;11.082;2022-12-29T13:17:12;3.88;;;1.42;;
37383;SDS011;23258;49.718;11.082;2022-12-29T13:19:46;2.15;;;1.30;;
37383;SDS011;23258;49.718;11.082;2022-12-29T13:22:17;1.58;;;1.48;;
37383;SDS011;23258;49.718;11.082;2022-12-29T13:24:52;0.95;;;0.95;;
37383;SDS011;23258;49.718;11.082;2022-12-29T13:27:26;2.97;;;1.60;;
37383;SDS011;23258;49.718;11.082;2022-12-29T13:30:04;1.00;;;0.93;;
37383;SDS011;23258;49.718;11.082;2022-12-29T13:32:38;1.52;;;1.42;;
37383;SDS011;23258;49.718;11.082;2022-12-29T13:35:11;2.47;;;1.60;;
37383;SDS011;23258;49.718;11.082;2022-12-29T13:37:45;1.48;;;1.42;;
37383;SDS011;23258;49.718;11.082;2022-12-29T13:40:16;1.20;;;1.20;;
37383;SDS011;23258;49.718;11.082;2022-12-29T13:42:48;2.47;;;1.52;;
37383;SDS011;23258;49.718;11.082;2022-12-29T13:45:19;1.60;;;1.50;;
37383;SDS011;23258;49.718;11.082;2022-12-29T13:47:54;1.77;;;1.60;;
37383;SDS011;23258;49.718;11.082;2022-12-29T13:50:25;1.17;;;1.17;;
37383;SDS011;23258;49.718;11.082;2022-12-29T13:52:58;1.67;;;1.20;;
37383;SDS011;23258;49.718;11.082;2022-12-29T13:55:32;0.80;;;0.80;;
37383;SDS011;23258;49.718;11.082;2022-12-29T13:58:04;0.95;;;0.95;;
37383;SDS011;23258;49.718;11.082;2022-12-29T14:00:42;1.60;;;1.50;;
37383;SDS011;23258;49.718;11.082;2022-12-29T14:03:20;2.20;;;1.80;;
37383;SDS011;23258;49.718;11.082;2022-12-29T14:06:04;3.65;;;3.35;;
37383;SDS011;23258;49.718;11.082;2022-12-29T14:08:34;1.75;;;1.60;;
37383;SDS011;23258;49.718;11.082;2022-12-29T14:11:05;1.58;;;1.40;;
37383;SDS011;23258;49.718;11.082;2022-12-29T15:48:59;2.45;;;2.33;;
37383;SDS011;23258;49.718;11.082;2022-12-29T15:51:29;2.55;;;2.35;;
37383;SDS011;23258;49.718;11.082;2022-12-29T15:54:00;4.40;;;2.50;;
37383;SDS011;23258;49.718;11.082;2022-12-29T15:56:30;2.72;;;2.53;;
37383;SDS011;23258;49.718;11.082;2022-12-29T15:59:00;3.28;;;2.97;;
37383;SDS011;23258;49.718;11.082;2022-12-29T16:01:30;4.18;;;3.28;;
37383;SDS011;23258;49.718;11.082;2022-12-29T16:04:04;2.85;;;2.65;;
37383;SDS011;23258;49.718;11.082;2022-12-29T16:06:34;2.70;;;2.50;;
37383;SDS011;23258;49.718;11.082;2022-12-29T16:09:05;2.95;;;2.60;;
37383;SDS011;23258;49.718;11.082;2022-12-29T16:11:35;2.88;;;2.47;;
37383;SDS011;23258;49.718;11.082;2022-12-29T16:14:06;2.88;;;1.98;;
37383;SDS011;23258;49.718;11.082;2022-12-29T16:16:37;2.70;;;2.50;;
37383;SDS011;23258;49.718;11.082;2022-12-29T16:19:11;2.92;;;2.20;;
37383;SDS011;23258;49.718;11.082;2022-12-29T16:21:41;2.85;;;2.53;;
37383;SDS011;23258;49.718;11.082;2022-12-29T16:24:12;2.28;;;2.05;;
37383;SDS011;23258;49.718;11.082;2022-12-29T16:26:47;2.67;;;2.47;;
37383;SDS011;23258;49.718;11.082;2022-12-29T16:29:17;2.97;;;2.78;;
37383;SDS011;23258;49.718;11.082;2022-12-29T16:31:50;2.35;;;2.25;;
37383;SDS011;23258;49.718;11.082;2022-12-29T16:34:31;3.10;;;2.30;;
37383;SDS011;23258;49.718;11.082;2022-12-29T16:37:01;3.90;;;2.78;;
37383;SDS011;23258;49.718;11.082;2022-12-29T16:39:35;3.63;;;2.42;;
37383;SDS011;23258;49.718;11.082;2022-12-29T16:44:50;2.85;;;2.50;;
37383;SDS011;23258;49.718;11.082;2022-12-29T16:47:22;3.45;;;2.03;;
37383;SDS011;23258;49.718;11.082;2022-12-29T16:49:54;3.97;;;2.58;;
37383;SDS011;23258;49.718;11.082;2022-12-29T16:52:39;3.72;;;3.00;;
37383;SDS011;23258;49.718;11.082;2022-12-29T16:55:14;5.40;;;4.90;;
37383;SDS011;23258;49.718;11.082;2022-12-29T16:57:44;3.10;;;2.85;;